Time;durP1;ratioP1;P1;durP2;ratioP2;P2;SDS_P1;SDS_P2;PMS_P1;PMS_P2;Temp;Humidity;BMP_temperature;BMP_pressure;BME280_temperature;BME280_humidity;BME280_pressure;Samples;Min_cycle;Max_cycle;Signal;HPM_P1;HPM_P2
2023/01/08 00:00:04;;;;;;;;;;;;;;;17.77;63.75;100209.44;2072604;28;19937;-72
2023/01/08 00:01:13;;;;;;;;;;;;;;;17.77;64.04;100205.97;2086567;28;20431;-68
2023/01/08 00:02:16;;;;;;;;;;;;;;;17.77;63.86;100208.69;2082326;28;19928;-70
2023/01/08 00:03:18;;;;;;;;;;;;;;;17.77;63.70;100203.22;2077434;28;19951;-72
2023/01/08 00:04:20;;;;;;;;;;;;;;;17.76;63.77;100205.16;2080918;28;19948;-70
2023/01/08 00:05:22;;;;;;;;;;;;;;;17.76;63.73;100209.84;2069290;28;19926;-70
2023/01/08 00:06:25;;;;;;;;;;;;;;;17.74;63.49;100199.31;2071181;28;19936;-70
2023/01/08 00:07:27;;;;;;;;;;;;;;;17.75;63.94;100194.66;2085215;28;19948;-71
2023/01/08 00:08:31;;;;;;;;;;;;;;;17.75;63.92;100184.50;2083666;28;19933;-72
2023/01/08 00:09:32;;;;;;;;;;;;;;;17.75;63.67;100191.91;2081015;28;20308;-71
2023/01/08 00:10:35;;;;;;;;;;;;;;;17.73;63.73;100194.28;2081660;28;20396;-68
2023/01/08 00:11:38;;;;;;;;;;;;;;;17.74;63.67;100198.56;2083912;28;19933;-70
2023/01/08 00:12:39;;;;;;;;;;;;;;;17.73;63.65;100197.00;2084661;28;19933;-70
2023/01/08 00:13:42;;;;;;;;;;;;;;;17.72;64.03;100193.53;2074448;28;19933;-71
2023/01/08 00:14:44;;;;;;;;;;;;;;;17.73;63.93;100191.53;2074632;28;19976;-70
2023/01/08 00:15:46;;;;;;;;;;;;;;;17.72;63.85;100201.72;2079135;28;19936;-70
2023/01/08 00:16:50;;;;;;;;;;;;;;;17.71;64.05;100194.69;2086842;28;19936;-71
2023/01/08 00:17:52;;;;;;;;;;;;;;;17.71;63.82;100191.19;2085721;28;20000;-70
2023/01/08 00:18:54;;;;;;;;;;;;;;;17.71;63.82;100196.66;2083844;28;19936;-71
2023/01/08 00:19:56;;;;;;;;;;;;;;;17.71;63.79;100191.19;2070167;28;19988;-70
2023/01/08 00:20:59;;;;;;;;;;;;;;;17.69;63.71;100193.53;2064010;28;19933;-71
2023/01/08 00:22:00;;;;;;;;;;;;;;;17.70;64.02;100197.81;2077114;28;20068;-71
2023/01/08 00:23:04;;;;;;;;;;;;;;;17.69;63.95;100197.06;2083845;28;19936;-71
2023/01/08 00:24:06;;;;;;;;;;;;;;;17.69;64.02;100204.47;2084246;28;19932;-71
2023/01/08 00:25:09;;;;;;;;;;;;;;;17.68;63.81;100208.34;2086338;28;19928;-71
2023/01/08 00:26:12;;;;;;;;;;;;;;;17.68;64.01;100203.69;2079766;28;19929;-70
2023/01/08 00:27:14;;;;;;;;;;;;;;;17.68;64.10;100200.16;2088849;28;20355;-70
2023/01/08 00:28:16;;;;;;;;;;;;;;;17.67;64.08;100199.41;2077839;28;19979;-70
2023/01/08 00:29:19;;;;;;;;;;;;;;;17.67;64.06;100199.41;2076915;28;19928;-72
2023/01/08 00:30:20;;;;;;;;;;;;;;;17.67;64.16;100193.16;2080698;28;19929;-70
2023/01/08 00:31:23;;;;;;;;;;;;;;;17.67;63.90;100184.97;2077395;28;20281;-70
2023/01/08 00:32:25;;;;;;;;;;;;;;;17.66;63.97;100202.53;2070127;28;19929;-72
2023/01/08 00:33:27;;;;;;;;;;;;;;;17.66;64.06;100197.09;2087819;28;19929;-70
2023/01/08 00:34:29;;;;;;;;;;;;;;;17.65;64.00;100195.50;2084081;28;19929;-70
2023/01/08 00:35:32;;;;;;;;;;;;;;;17.65;63.85;100190.84;2085431;28;19928;-70
2023/01/08 00:36:33;;;;;;;;;;;;;;;17.66;64.10;100188.91;2082114;28;19948;-70
2023/01/08 00:37:36;;;;;;;;;;;;;;;17.64;64.17;100178.38;2078656;28;19933;-71
2023/01/08 00:38:39;;;;;;;;;;;;;;;17.64;63.87;100185.78;2079768;28;19933;-70
2023/01/08 00:39:42;;;;;;;;;;;;;;;17.64;64.08;100183.06;2083451;28;19940;-71
2023/01/08 00:40:43;;;;;;;;;;;;;;;17.63;63.95;100179.53;2089174;28;19929;-71
2023/01/08 00:41:47;;;;;;;;;;;;;;;17.63;64.05;100182.25;2095205;28;19940;-72
2023/01/08 00:42:48;;;;;;;;;;;;;;;17.63;64.00;100186.97;2082964;28;19929;-71
2023/01/08 00:43:51;;;;;;;;;;;;;;;17.63;64.17;100186.97;2081959;28;19936;-71
2023/01/08 00:44:52;;;;;;;;;;;;;;;17.63;64.12;100181.50;2084201;28;19929;-70
2023/01/08 00:45:55;;;;;;;;;;;;;;;17.62;63.95;100185.41;2087548;28;19932;-71
2023/01/08 00:46:57;;;;;;;;;;;;;;;17.62;64.13;100179.94;2088342;28;19952;-71
2023/01/08 00:47:59;;;;;;;;;;;;;;;17.61;64.19;100184.66;2084747;28;19929;-71
2023/01/08 00:49:01;;;;;;;;;;;;;;;17.61;64.22;100189.31;2072805;28;19936;-71
2023/01/08 00:50:04;;;;;;;;;;;;;;;17.61;64.17;100189.31;2083303;28;19959;-70
2023/01/08 00:51:06;;;;;;;;;;;;;;;17.60;63.86;100188.53;2087672;28;19951;-71
2023/01/08 00:52:08;;;;;;;;;;;;;;;17.60;63.84;100182.31;2082029;28;20686;-71
2023/01/08 00:53:11;;;;;;;;;;;;;;;17.60;64.04;100188.53;2085727;28;19925;-71
2023/01/08 00:54:14;;;;;;;;;;;;;;;17.60;64.04;100187.78;2082563;28;19928;-72
2023/01/08 00:55:16;;;;;;;;;;;;;;;17.59;64.15;100191.66;2086125;28;19933;-70
2023/01/08 00:56:19;;;;;;;;;;;;;;;17.59;63.98;100187.00;2086874;28;19933;-70
2023/01/08 00:57:20;;;;;;;;;;;;;;;17.59;64.14;100183.47;2086047;28;20067;-70
2023/01/08 00:58:23;;;;;;;;;;;;;;;17.59;64.18;100194.41;2082176;28;19933;-70
2023/01/08 00:59:26;;;;;;;;;;;;;;;17.58;63.90;100190.88;2087222;28;19976;-70
2023/01/08 01:00:27;;;;;;;;;;;;;;;17.59;64.17;100191.66;2074516;28;19934;-70
2023/01/08 01:01:30;;;;;;;;;;;;;;;17.58;63.92;100190.88;2078106;28;19936;-70
2023/01/08 01:02:33;;;;;;;;;;;;;;;17.58;64.14;100198.31;2075425;28;20385;-70
2023/01/08 01:03:35;;;;;;;;;;;;;;;17.58;63.91;100190.13;2080135;28;19937;-71
2023/01/08 01:04:37;;;;;;;;;;;;;;;17.57;63.95;100197.53;2079775;28;19988;-70
2023/01/08 01:05:40;;;;;;;;;;;;;;;17.57;64.24;100192.06;2084412;28;19929;-71
2023/01/08 01:06:41;;;;;;;;;;;;;;;17.57;64.20;100185.81;2075921;28;20093;-70
2023/01/08 01:07:44;;;;;;;;;;;;;;;17.57;64.24;100202.22;2077808;28;20324;-70
2023/01/08 01:08:45;;;;;;;;;;;;;;;17.57;64.20;100194.03;2082532;28;19932;-70
2023/01/08 01:09:49;;;;;;;;;;;;;;;17.56;63.95;100190.53;2084071;28;19925;-72
2023/01/08 01:10:51;;;;;;;;;;;;;;;17.56;63.95;100192.47;2078416;28;20059;-71
2023/01/08 01:11:54;;;;;;;;;;;;;;;17.56;64.13;100196.00;2071673;28;19934;-71
2023/01/08 01:12:55;;;;;;;;;;;;;;;17.55;64.43;100188.97;2073924;28;19933;-72
2023/01/08 01:13:58;;;;;;;;;;;;;;;17.54;64.38;100195.59;2093249;28;20434;-70
2023/01/08 01:14:59;;;;;;;;;;;;;;;17.55;64.30;100190.94;2092888;28;20427;-70
2023/01/08 01:16:02;;;;;;;;;;;;;;;17.55;63.97;100190.94;2074952;28;19933;-70
2023/01/08 01:17:04;;;;;;;;;;;;;;;17.55;64.18;100196.41;2078093;28;19963;-70
2023/01/08 01:18:06;;;;;;;;;;;;;;;17.54;64.25;100190.16;2078637;28;20020;-69
2023/01/08 01:19:08;;;;;;;;;;;;;;;17.53;63.99;100188.63;2088304;28;19929;-70
2023/01/08 01:20:12;;;;;;;;;;;;;;;17.54;64.00;100187.41;2080051;28;19937;-70
2023/01/08 01:21:21;;;;;;;;;;;;;;;17.53;63.91;100182.38;2081947;28;19970;-70
2023/01/08 01:22:23;;;;;;;;;;;;;;;17.52;64.24;100186.28;2079549;28;19926;-70
2023/01/08 01:23:26;;;;;;;;;;;;;;;17.52;63.97;100178.09;2080891;28;19947;-71
2023/01/08 01:24:29;;;;;;;;;;;;;;;17.52;64.31;100197.19;2081486;28;19933;-70
2023/01/08 01:25:36;;;;;;;;;;;;;;;17.52;64.11;100195.22;2084529;28;19936;-71
2023/01/08 01:26:40;;;;;;;;;;;;;;;17.52;64.22;100194.47;2079633;28;19932;-70
2023/01/08 01:27:42;;;;;;;;;;;;;;;17.51;64.17;100190.19;2086121;28;19943;-70
2023/01/08 01:28:46;;;;;;;;;;;;;;;17.51;64.28;100190.97;2081479;28;19928;-71
2023/01/08 01:29:48;;;;;;;;;;;;;;;17.51;64.01;100193.69;2086083;28;19933;-70
2023/01/08 01:30:55;;;;;;;;;;;;;;;17.50;64.16;100177.72;2081879;28;19928;-71
2023/01/08 01:31:57;;;;;;;;;;;;;;;17.51;64.29;100192.91;2077640;28;19925;-70
2023/01/08 01:32:59;;;;;;;;;;;;;;;17.51;64.02;100192.91;2078879;28;19933;-70
2023/01/08 01:34:01;;;;;;;;;;;;;;;17.49;64.29;100179.66;2085649;28;19936;-71
2023/01/08 01:35:03;;;;;;;;;;;;;;;17.51;64.33;100190.19;2071091;28;20384;-71
2023/01/08 01:36:06;;;;;;;;;;;;;;;17.50;64.43;100188.63;2075694;28;19933;-71
2023/01/08 01:37:08;;;;;;;;;;;;;;;17.49;64.35;100192.56;2071257;28;19929;-70
2023/01/08 01:38:11;;;;;;;;;;;;;;;17.48;64.00;100189.03;2078244;28;19936;-71
2023/01/08 01:39:12;;;;;;;;;;;;;;;17.50;64.04;100191.38;2073060;28;19930;-71
2023/01/08 01:40:15;;;;;;;;;;;;;;;17.49;64.30;100193.31;2087445;28;19937;-70
2023/01/08 01:41:22;;;;;;;;;;;;;;;17.50;64.04;100194.09;2083657;28;19954;-71
2023/01/08 01:42:40;;;;;;;;;;;;;;;17.49;64.01;100195.28;2087291;28;19936;-70
2023/01/08 01:43:42;;;;;;;;;;;;;;;17.49;64.32;100200.75;2095289;28;19933;-71
2023/01/08 01:44:45;;;;;;;;;;;;;;;17.48;64.24;100196.44;2094370;28;19932;-70
2023/01/08 01:45:46;;;;;;;;;;;;;;;17.48;64.27;100189.03;2075725;28;19929;-70
2023/01/08 01:46:51;;;;;;;;;;;;;;;17.49;64.01;100198.00;2077190;28;20013;-72
2023/01/08 01:47:56;;;;;;;;;;;;;;;17.48;64.28;100197.22;2076266;28;19940;-70
2023/01/08 01:49:00;;;;;;;;;;;;;;;17.47;64.05;100200.34;2079107;28;19966;-70
2023/01/08 01:50:04;;;;;;;;;;;;;;;17.48;64.17;100201.91;2073239;28;19988;-71
2023/01/08 01:51:06;;;;;;;;;;;;;;;17.47;64.21;100200.34;2067466;28;19930;-71
2023/01/08 01:52:08;;;;;;;;;;;;;;;17.47;64.08;100214.75;2074762;28;19929;-71
2023/01/08 01:53:12;;;;;;;;;;;;;;;17.47;64.03;100212.03;2082041;28;20331;-71
2023/01/08 01:54:14;;;;;;;;;;;;;;;17.47;64.09;100201.13;2084835;28;19928;-72
2023/01/08 01:55:18;;;;;;;;;;;;;;;17.47;64.16;100216.72;2074400;28;19933;-73
2023/01/08 01:56:21;;;;;;;;;;;;;;;17.46;64.35;100199.56;2078871;28;19933;-70
2023/01/08 01:57:23;;;;;;;;;;;;;;;17.47;64.25;100216.72;2081911;28;19967;-69
2023/01/08 01:58:26;;;;;;;;;;;;;;;17.47;64.38;100216.72;2081774;28;19929;-72
2023/01/08 01:59:29;;;;;;;;;;;;;;;17.46;64.05;100217.91;2080973;28;19925;-70
2023/01/08 02:00:31;;;;;;;;;;;;;;;17.46;64.31;100220.63;2077506;28;19929;-72
2023/01/08 02:01:34;;;;;;;;;;;;;;;17.45;64.39;100219.88;2074252;28;19926;-71
2023/01/08 02:02:36;;;;;;;;;;;;;;;17.45;64.35;100214.41;2084644;28;19933;-71
2023/01/08 02:03:40;;;;;;;;;;;;;;;17.44;64.18;100210.09;2084573;28;19928;-70
2023/01/08 02:04:41;;;;;;;;;;;;;;;17.45;64.36;100219.88;2095484;28;20023;-70
2023/01/08 02:05:47;;;;;;;;;;;;;;;17.45;64.33;100210.91;2088218;28;20299;-71
2023/01/08 02:06:55;;;;;;;;;;;;;;;17.44;64.32;100218.28;2085595;28;19929;-70
2023/01/08 02:08:01;;;;;;;;;;;;;;;17.45;64.25;100213.63;2074625;28;19924;-70
2023/01/08 02:09:06;;;;;;;;;;;;;;;17.45;64.20;100219.88;2083807;28;19926;-70
2023/01/08 02:10:10;;;;;;;;;;;;;;;17.44;64.32;100206.59;2087110;28;19928;-70
2023/01/08 02:11:16;;;;;;;;;;;;;;;17.44;64.40;100207.38;2087085;28;19928;-70
2023/01/08 02:12:22;;;;;;;;;;;;;;;17.44;64.00;100212.06;2080728;28;20300;-72
2023/01/08 02:13:27;;;;;;;;;;;;;;;17.44;64.40;100206.59;2093055;28;20108;-70
2023/01/08 02:14:34;;;;;;;;;;;;;;;17.43;64.32;100205.81;2086065;28;20062;-72
2023/01/08 02:15:41;;;;;;;;;;;;;;;17.43;64.20;100208.53;2084906;28;19991;-72
2023/01/08 02:16:45;;;;;;;;;;;;;;;17.44;64.05;100206.59;2082002;28;19925;-69
2023/01/08 02:17:49;;;;;;;;;;;;;;;17.43;64.19;100205.03;2087183;28;19933;-70
2023/01/08 02:18:54;;;;;;;;;;;;;;;17.43;64.19;100205.03;2084286;28;19929;-70
2023/01/08 02:19:59;;;;;;;;;;;;;;;17.42;64.20;100219.84;2086373;28;19929;-70
2023/01/08 02:21:03;;;;;;;;;;;;;;;17.42;64.06;100215.19;2083439;28;19934;-70
2023/01/08 02:22:13;;;;;;;;;;;;;;;17.42;64.23;100220.63;2093515;28;19937;-70
2023/01/08 02:23:20;;;;;;;;;;;;;;;17.42;64.37;100214.41;2090956;28;20415;-70
2023/01/08 02:24:29;;;;;;;;;;;;;;;17.42;64.47;100209.72;2084423;28;20421;-71
2023/01/08 02:25:39;;;;;;;;;;;;;;;17.42;64.21;100211.66;2085068;28;20413;-71
2023/01/08 02:26:45;;;;;;;;;;;;;;;17.42;64.32;100208.94;2082188;28;19977;-70
2023/01/08 02:27:50;;;;;;;;;;;;;;;17.41;64.03;100202.69;2076677;28;19929;-70
2023/01/08 02:28:54;;;;;;;;;;;;;;;17.40;64.37;100201.16;2076729;28;19940;-71
2023/01/08 02:29:57;;;;;;;;;;;;;;;17.41;64.37;100210.88;2092911;28;19928;-70
2023/01/08 02:31:00;;;;;;;;;;;;;;;17.41;64.25;100196.47;2083959;28;20443;-72
2023/01/08 02:32:02;;;;;;;;;;;;;;;17.40;64.30;100201.16;2083518;28;19932;-70
2023/01/08 02:33:04;;;;;;;;;;;;;;;17.40;64.23;100205.81;2092805;28;19936;-70
2023/01/08 02:34:06;;;;;;;;;;;;;;;17.40;64.46;100203.88;2087322;28;19929;-70
2023/01/08 02:35:09;;;;;;;;;;;;;;;17.40;64.14;100205.81;2086916;28;19936;-70
2023/01/08 02:36:20;;;;;;;;;;;;;;;17.40;64.28;100208.56;2083997;28;19937;-70
2023/01/08 02:37:23;;;;;;;;;;;;;;;17.40;64.24;100203.09;2086941;28;19928;-70
2023/01/08 02:38:25;;;;;;;;;;;;;;;17.40;64.30;100216.75;2082695;28;19925;-70
2023/01/08 02:39:43;;;;;;;;;;;;;;;17.40;64.13;100205.81;2085155;28;19935;-71
2023/01/08 02:40:51;;;;;;;;;;;;;;;17.39;64.17;100204.28;2079304;28;19929;-73
2023/01/08 02:42:04;;;;;;;;;;;;;;;17.39;64.02;100204.28;2078412;28;19925;-71
2023/01/08 02:43:10;;;;;;;;;;;;;;;17.40;64.19;100208.56;2079760;28;19932;-72
2023/01/08 02:44:15;;;;;;;;;;;;;;;17.38;64.11;100205.44;2083165;28;19929;-70
2023/01/08 02:45:26;;;;;;;;;;;;;;;17.39;64.19;100213.25;2082259;28;19929;-70
2023/01/08 02:46:30;;;;;;;;;;;;;;;17.38;64.42;100203.50;2078568;28;20380;-69
2023/01/08 02:47:35;;;;;;;;;;;;;;;17.38;64.18;100202.72;2074997;28;19936;-70
2023/01/08 02:48:38;;;;;;;;;;;;;;;17.36;64.44;100194.94;2071539;28;20667;-71
2023/01/08 02:49:43;;;;;;;;;;;;;;;17.38;64.20;100197.25;2087072;28;19932;-71
2023/01/08 02:50:51;;;;;;;;;;;;;;;17.38;64.46;100199.97;2090845;28;20810;-70
2023/01/08 02:51:56;;;;;;;;;;;;;;;17.37;64.20;100193.00;2083703;28;19932;-70
2023/01/08 02:53:02;;;;;;;;;;;;;;;17.37;64.23;100193.00;2078474;28;20435;-70
2023/01/08 02:54:06;;;;;;;;;;;;;;;17.37;63.96;100184.81;2084452;28;19935;-72
2023/01/08 02:55:09;;;;;;;;;;;;;;;17.36;64.46;100205.09;2075877;28;19936;-71
2023/01/08 02:56:12;;;;;;;;;;;;;;;17.37;64.30;100201.19;2079979;28;19933;-71
2023/01/08 02:57:17;;;;;;;;;;;;;;;17.35;64.47;100198.84;2089829;28;19929;-70
2023/01/08 02:58:19;;;;;;;;;;;;;;;17.34;64.05;100189.13;2092207;28;19928;-71
2023/01/08 02:59:22;;;;;;;;;;;;;;;17.36;64.30;100191.44;2081271;28;19933;-69
2023/01/08 03:00:24;;;;;;;;;;;;;;;17.35;64.19;100198.84;2076647;28;19929;-69
2023/01/08 03:01:28;;;;;;;;;;;;;;;17.34;64.35;100191.06;2075346;28;20020;-70
2023/01/08 03:02:31;;;;;;;;;;;;;;;17.35;64.46;100195.34;2084169;28;19978;-71
2023/01/08 03:03:35;;;;;;;;;;;;;;;17.34;64.34;100200.03;2081081;28;19932;-71
2023/01/08 03:04:39;;;;;;;;;;;;;;;17.34;64.31;100194.56;2083138;28;19929;-72
2023/01/08 03:05:43;;;;;;;;;;;;;;;17.33;64.36;100190.28;2081341;28;19933;-71
2023/01/08 03:06:45;;;;;;;;;;;;;;;17.34;64.11;100199.25;2087084;28;19931;-69
2023/01/08 03:07:48;;;;;;;;;;;;;;;17.33;64.23;100192.25;2085287;28;20021;-70
2023/01/08 03:08:52;;;;;;;;;;;;;;;17.34;64.29;100196.53;2083815;28;19936;-69
2023/01/08 03:09:54;;;;;;;;;;;;;;;17.34;64.39;100196.53;2085212;28;20806;-71
2023/01/08 03:10:59;;;;;;;;;;;;;;;17.33;64.12;100186.78;2082696;28;19951;-70
2023/01/08 03:12:05;;;;;;;;;;;;;;;17.33;64.25;100197.72;2074910;28;19933;-70
2023/01/08 03:13:12;;;;;;;;;;;;;;;17.33;64.07;100184.81;2078798;28;21008;-70
2023/01/08 03:14:17;;;;;;;;;;;;;;;17.33;64.05;100187.56;2087120;28;20732;-71
2023/01/08 03:15:22;;;;;;;;;;;;;;;17.32;64.29;100193.41;2091108;28;19933;-70
2023/01/08 03:16:28;;;;;;;;;;;;;;;17.32;64.31;100194.19;2092317;28;19928;-70
2023/01/08 03:17:32;;;;;;;;;;;;;;;17.32;64.38;100194.19;2077874;28;19932;-70
2023/01/08 03:18:37;;;;;;;;;;;;;;;17.32;64.40;100193.41;2087324;28;19929;-71
2023/01/08 03:19:41;;;;;;;;;;;;;;;17.32;64.07;100187.94;2082003;28;19929;-71
2023/01/08 03:20:44;;;;;;;;;;;;;;;17.32;64.31;100193.41;2076274;28;19929;-72
2023/01/08 03:21:47;;;;;;;;;;;;;;;17.32;64.22;100193.41;2082510;28;19929;-71
2023/01/08 03:22:50;;;;;;;;;;;;;;;17.32;64.33;100190.69;2079625;28;19929;-70
2023/01/08 03:23:53;;;;;;;;;;;;;;;17.31;64.39;100186.41;2077600;28;19930;-70
2023/01/08 03:24:56;;;;;;;;;;;;;;;17.31;64.49;100191.88;2080477;28;20056;-70
2023/01/08 03:26:00;;;;;;;;;;;;;;;17.31;64.41;100183.69;2080160;28;20051;-70
2023/01/08 03:27:03;;;;;;;;;;;;;;;17.31;64.50;100189.94;2083695;28;19932;-70
2023/01/08 03:28:15;;;;;;;;;;;;;;;17.31;64.06;100189.94;2077915;28;19952;-69
2023/01/08 03:29:19;;;;;;;;;;;;;;;17.30;64.11;100191.09;2081926;28;19929;-71
2023/01/08 03:30:23;;;;;;;;;;;;;;;17.31;64.21;100191.88;2084985;28;19933;-70
2023/01/08 03:31:26;;;;;;;;;;;;;;;17.31;64.01;100197.31;2085507;28;19932;-69
2023/01/08 03:32:29;;;;;;;;;;;;;;;17.29;63.92;100195.00;2078841;28;19972;-70
2023/01/08 03:33:32;;;;;;;;;;;;;;;17.29;64.20;100189.53;2085357;28;19963;-71
2023/01/08 03:34:37;;;;;;;;;;;;;;;17.30;64.38;100202.00;2072644;28;19929;-71
2023/01/08 03:35:41;;;;;;;;;;;;;;;17.30;64.12;100201.25;2077738;28;20598;-69
2023/01/08 03:36:45;;;;;;;;;;;;;;;17.28;64.19;100198.88;2084963;28;19924;-69
2023/01/08 03:37:52;;;;;;;;;;;;;;;17.28;64.41;100196.16;2071870;28;19940;-69
2023/01/08 03:38:57;;;;;;;;;;;;;;;17.28;64.15;100200.84;2072769;28;19929;-70
2023/01/08 03:40:04;;;;;;;;;;;;;;;17.29;64.24;100210.59;2084582;28;19933;-70
2023/01/08 03:41:08;;;;;;;;;;;;;;;17.29;64.43;100194.22;2080495;28;19936;-69
2023/01/08 03:42:13;;;;;;;;;;;;;;;17.28;64.41;100209.03;2085249;28;20317;-70
2023/01/08 03:43:15;;;;;;;;;;;;;;;17.28;64.13;100203.59;2081907;28;19928;-69
2023/01/08 03:44:18;;;;;;;;;;;;;;;17.27;64.18;100205.53;2082545;28;20381;-71
2023/01/08 03:45:22;;;;;;;;;;;;;;;17.28;64.24;100203.59;2092193;28;19933;-70
2023/01/08 03:46:27;;;;;;;;;;;;;;;17.28;64.56;100203.59;2087833;28;19928;-74
2023/01/08 03:47:31;;;;;;;;;;;;;;;17.28;64.44;100198.13;2080924;28;19978;-70
2023/01/08 03:48:34;;;;;;;;;;;;;;;17.28;64.21;100200.84;2085692;28;19925;-70
2023/01/08 03:49:38;;;;;;;;;;;;;;;17.27;64.41;100197.34;2081605;28;19928;-71
2023/01/08 03:50:40;;;;;;;;;;;;;;;17.27;64.34;100197.34;2077959;28;19976;-71
2023/01/08 03:51:44;;;;;;;;;;;;;;;17.27;64.21;100188.38;2080294;28;19933;-71
2023/01/08 03:52:46;;;;;;;;;;;;;;;17.27;64.33;100180.19;2077331;28;20002;-71
2023/01/08 03:53:50;;;;;;;;;;;;;;;17.26;64.36;100179.44;2074053;28;19933;-71
2023/01/08 03:54:52;;;;;;;;;;;;;;;17.26;64.21;100173.19;2083730;28;20015;-72
2023/01/08 03:55:55;;;;;;;;;;;;;;;17.26;64.16;100187.63;2078085;28;19932;-72
2023/01/08 03:56:57;;;;;;;;;;;;;;;17.25;64.23;100177.88;2084703;28;20419;-71
2023/01/08 03:58:00;;;;;;;;;;;;;;;17.26;64.42;100178.66;2084351;28;19929;-71
2023/01/08 03:59:01;;;;;;;;;;;;;;;17.26;64.26;100184.88;2077538;28;20416;-71
2023/01/08 04:00:06;;;;;;;;;;;;;;;17.25;64.39;100177.09;2077563;28;19929;-71
2023/01/08 04:01:08;;;;;;;;;;;;;;;17.24;64.14;100181.78;2085770;28;19929;-71
2023/01/08 04:02:10;;;;;;;;;;;;;;;17.24;64.34;100179.06;2074011;28;19967;-71
2023/01/08 04:03:12;;;;;;;;;;;;;;;17.25;64.24;100163.47;2068882;28;19933;-71
2023/01/08 04:04:15;;;;;;;;;;;;;;;17.24;64.39;100161.91;2084900;28;19943;-72
2023/01/08 04:05:16;;;;;;;;;;;;;;;17.25;64.13;100164.22;2092683;28;20315;-70
2023/01/08 04:06:19;;;;;;;;;;;;;;;17.24;64.21;100159.16;2079686;28;19936;-71
2023/01/08 04:07:20;;;;;;;;;;;;;;;17.24;64.34;100161.91;2082352;28;19933;-71
2023/01/08 04:08:23;;;;;;;;;;;;;;;17.24;64.33;100159.16;2082965;28;19933;-71
2023/01/08 04:09:25;;;;;;;;;;;;;;;17.24;64.21;100153.72;2086280;28;19937;-71
2023/01/08 04:10:27;;;;;;;;;;;;;;;17.24;64.22;100164.63;2079413;28;19936;-71
2023/01/08 04:11:29;;;;;;;;;;;;;;;17.24;64.26;100159.16;2077627;28;20404;-71
2023/01/08 04:12:31;;;;;;;;;;;;;;;17.24;64.48;100170.09;2077857;28;19929;-71
2023/01/08 04:13:33;;;;;;;;;;;;;;;17.23;64.25;100160.34;2064256;28;20313;-71
2023/01/08 04:14:36;;;;;;;;;;;;;;;17.23;64.17;100157.63;2071673;28;19930;-71
2023/01/08 04:15:39;;;;;;;;;;;;;;;17.23;64.40;100150.22;2090583;28;19928;-71
2023/01/08 04:16:41;;;;;;;;;;;;;;;17.23;64.23;100144.00;2081600;28;19925;-70
2023/01/08 04:17:44;;;;;;;;;;;;;;;17.23;64.35;100152.16;2073701;28;19937;-70
2023/01/08 04:18:45;;;;;;;;;;;;;;;17.22;64.28;100150.63;2075835;28;19929;-70
2023/01/08 04:19:48;;;;;;;;;;;;;;;17.22;64.46;100151.38;2076091;28;19967;-69
2023/01/08 04:20:49;;;;;;;;;;;;;;;17.22;64.53;100153.34;2081269;28;19954;-71
2023/01/08 04:21:52;;;;;;;;;;;;;;;17.22;64.34;100147.91;2067674;28;19933;-70
2023/01/08 04:22:53;;;;;;;;;;;;;;;17.22;64.10;100148.66;2065235;28;19926;-71
2023/01/08 04:23:56;;;;;;;;;;;;;;;17.22;64.54;100154.13;2070054;28;20393;-70
2023/01/08 04:24:58;;;;;;;;;;;;;;;17.22;64.08;100164.28;2075415;28;19934;-70
2023/01/08 04:26:03;;;;;;;;;;;;;;;17.22;64.08;100150.63;2082504;28;19929;-69
2023/01/08 04:27:05;;;;;;;;;;;;;;;17.22;64.23;100156.84;2084715;28;19975;-72
2023/01/08 04:28:07;;;;;;;;;;;;;;;17.22;64.52;100161.53;2088110;28;20317;-70
2023/01/08 04:29:09;;;;;;;;;;;;;;;17.21;64.17;100158.03;2092433;28;19928;-70
2023/01/08 04:30:12;;;;;;;;;;;;;;;17.21;64.12;100149.06;2091237;28;20403;-71
2023/01/08 04:31:15;;;;;;;;;;;;;;;17.21;64.46;100159.97;2080559;28;19933;-71
2023/01/08 04:32:18;;;;;;;;;;;;;;;17.21;64.41;100162.69;2072471;28;19926;-70
2023/01/08 04:33:20;;;;;;;;;;;;;;;17.21;64.40;100149.06;2074369;28;19929;-70
2023/01/08 04:34:22;;;;;;;;;;;;;;;17.20;64.44;100151.03;2072491;28;19929;-70
2023/01/08 04:35:24;;;;;;;;;;;;;;;17.19;64.40;100152.19;2065671;28;20026;-71
2023/01/08 04:36:26;;;;;;;;;;;;;;;17.20;64.22;100150.25;2077732;28;19937;-70
2023/01/08 04:37:28;;;;;;;;;;;;;;;17.21;64.27;100154.50;2072292;28;19933;-71
2023/01/08 04:38:31;;;;;;;;;;;;;;;17.19;64.34;100148.69;2083276;28;19929;-71
2023/01/08 04:39:32;;;;;;;;;;;;;;;17.20;64.34;100158.44;2078020;28;19932;-71
2023/01/08 04:40:35;;;;;;;;;;;;;;;17.20;64.40;100156.50;2076280;28;20015;-71
2023/01/08 04:41:37;;;;;;;;;;;;;;;17.20;64.24;100153.75;2081529;28;20321;-70
2023/01/08 04:42:39;;;;;;;;;;;;;;;17.20;64.22;100166.63;2083497;28;19982;-70
2023/01/08 04:43:41;;;;;;;;;;;;;;;17.20;64.41;100163.88;2080531;28;19928;-70
2023/01/08 04:44:43;;;;;;;;;;;;;;;17.19;63.99;100156.88;2076323;28;20451;-70
2023/01/08 04:45:45;;;;;;;;;;;;;;;17.20;64.18;100152.97;2077827;28;19937;-70
2023/01/08 04:46:49;;;;;;;;;;;;;;;17.19;64.25;100154.91;2082119;28;19933;-70
2023/01/08 04:47:54;;;;;;;;;;;;;;;17.18;64.06;100144.41;2080588;28;19940;-71
2023/01/08 04:48:56;;;;;;;;;;;;;;;17.19;64.24;100143.22;2081105;28;19939;-70
2023/01/08 04:49:58;;;;;;;;;;;;;;;17.18;64.27;100145.19;2084397;28;19929;-70
2023/01/08 04:51:01;;;;;;;;;;;;;;;17.19;64.21;100140.50;2087583;28;19936;-70
2023/01/08 04:52:03;;;;;;;;;;;;;;;17.18;64.23;100144.41;2084395;28;19985;-69
2023/01/08 04:53:06;;;;;;;;;;;;;;;17.18;64.15;100139.75;2085020;28;19978;-70
2023/01/08 04:54:07;;;;;;;;;;;;;;;17.18;64.26;100139.75;2084560;28;19928;-70
2023/01/08 04:55:10;;;;;;;;;;;;;;;17.19;64.15;100137.75;2086791;28;19932;-70
2023/01/08 04:56:12;;;;;;;;;;;;;;;17.18;64.36;100133.50;2077928;28;20020;-70
2023/01/08 04:57:14;;;;;;;;;;;;;;;17.18;64.28;100125.31;2066255;28;19952;-70
2023/01/08 04:58:16;;;;;;;;;;;;;;;17.17;64.47;100118.31;2079382;28;19936;-72
2023/01/08 04:59:18;;;;;;;;;;;;;;;17.17;64.43;100121.03;2083907;28;19932;-72
2023/01/08 05:00:20;;;;;;;;;;;;;;;17.17;64.14;100121.03;2076923;28;19937;-71
2023/01/08 05:01:24;;;;;;;;;;;;;;;17.17;64.23;100121.81;2069548;28;19925;-70
2023/01/08 05:02:27;;;;;;;;;;;;;;;17.18;63.93;100128.03;2084508;28;19968;-70
2023/01/08 05:03:30;;;;;;;;;;;;;;;17.18;64.05;100114.41;2090585;28;20346;-70
2023/01/08 05:04:32;;;;;;;;;;;;;;;17.17;64.25;100113.63;2080785;28;20427;-70
2023/01/08 05:05:34;;;;;;;;;;;;;;;17.17;64.16;100105.44;2080239;28;19940;-70
2023/01/08 05:06:36;;;;;;;;;;;;;;;17.17;64.04;100099.22;2086145;28;19928;-70
2023/01/08 05:07:38;;;;;;;;;;;;;;;17.16;64.18;100097.66;2083537;28;19929;-70
2023/01/08 05:08:41;;;;;;;;;;;;;;;17.16;64.24;100092.19;2075608;28;19983;-70
2023/01/08 05:09:42;;;;;;;;;;;;;;;17.16;64.19;100097.66;2074869;28;19925;-71
2023/01/08 05:10:45;;;;;;;;;;;;;;;17.16;64.24;100097.66;2076852;28;19929;-70
2023/01/08 05:11:46;;;;;;;;;;;;;;;17.15;64.31;100104.28;2071906;28;19926;-70
2023/01/08 05:12:49;;;;;;;;;;;;;;;17.15;64.26;100113.25;2085229;28;19932;-72
2023/01/08 05:13:51;;;;;;;;;;;;;;;17.16;64.21;100114.03;2075526;28;19933;-71
2023/01/08 05:14:54;;;;;;;;;;;;;;;17.16;64.47;100124.94;2079208;28;19925;-70
2023/01/08 05:15:57;;;;;;;;;;;;;;;17.15;64.30;100116.00;2086951;28;19925;-70
2023/01/08 05:16:59;;;;;;;;;;;;;;;17.15;64.07;100113.25;2084813;28;19929;-70
2023/01/08 05:18:03;;;;;;;;;;;;;;;17.16;64.11;100108.56;2082658;28;19929;-71
2023/01/08 05:19:06;;;;;;;;;;;;;;;17.14;64.38;100105.47;2083454;28;19982;-72
2023/01/08 05:20:08;;;;;;;;;;;;;;;17.14;64.22;100108.97;2078862;28;19929;-72
2023/01/08 05:21:11;;;;;;;;;;;;;;;17.15;64.32;100107.03;2078269;28;19929;-69
2023/01/08 05:22:12;;;;;;;;;;;;;;;17.15;64.09;100107.03;2080056;28;20360;-72
2023/01/08 05:23:15;;;;;;;;;;;;;;;17.14;64.01;100113.66;2087342;28;19933;-71
2023/01/08 05:24:17;;;;;;;;;;;;;;;17.14;64.30;100105.47;2084946;28;19925;-71